sensor_id;sensor_type;location;lat;lon;timestamp;pressure;altitude;pressure_sealevel;temperature;humidity
80335;BME280;69653;52.674;13.574;2023-08-07T00:02:01;99439.28;;;14.76;80.39
80335;BME280;69653;52.674;13.574;2023-08-07T00:04:26;99429.25;;;14.68;80.78
80335;BME280;69653;52.674;13.574;2023-08-07T00:06:51;99436.63;;;14.79;79.96
80335;BME280;69653;52.674;13.574;2023-08-07T00:09:16;99438.66;;;14.82;79.68
80335;BME280;69653;52.674;13.574;2023-08-07T00:11:42;99445.22;;;14.78;80.08
80335;BME280;69653;52.674;13.574;2023-08-07T00:14:07;99435.88;;;14.67;80.20
80335;BME280;69653;52.674;13.574;2023-08-07T00:16:33;99446.22;;;14.70;80.02
80335;BME280;69653;52.674;13.574;2023-08-07T00:18:58;99440.41;;;14.75;79.96
80335;BME280;69653;52.674;13.574;2023-08-07T00:21:23;99441.47;;;14.70;79.99
80335;BME280;69653;52.674;13.574;2023-08-07T00:23:49;99428.63;;;14.74;80.07
80335;BME280;69653;52.674;13.574;2023-08-07T00:26:15;99433.59;;;14.69;79.99
80335;BME280;69653;52.674;13.574;2023-08-07T00:28:40;99430.94;;;14.88;79.54
80335;BME280;69653;52.674;13.574;2023-08-07T00:31:05;99430.47;;;14.86;80.12
80335;BME280;69653;52.674;13.574;2023-08-07T00:33:31;99427.00;;;15.04;78.86
80335;BME280;69653;52.674;13.574;2023-08-07T00:35:56;99431.97;;;15.15;78.51
80335;BME280;69653;52.674;13.574;2023-08-07T00:38:21;99432.28;;;15.29;77.88
80335;BME280;69653;52.674;13.574;2023-08-07T00:40:47;99433.41;;;15.43;77.59
80335;BME280;69653;52.674;13.574;2023-08-07T00:43:12;99426.78;;;15.64;76.54
80335;BME280;69653;52.674;13.574;2023-08-07T00:45:41;99426.56;;;15.72;76.12
80335;BME280;69653;52.674;13.574;2023-08-07T00:48:07;99428.25;;;15.96;75.43
80335;BME280;69653;52.674;13.574;2023-08-07T00:50:33;99430.13;;;16.11;74.81
80335;BME280;69653;52.674;13.574;2023-08-07T00:52:59;99414.47;;;15.96;75.59
80335;BME280;69653;52.674;13.574;2023-08-07T00:55:24;99425.63;;;15.84;76.08
80335;BME280;69653;52.674;13.574;2023-08-07T00:57:50;99427.78;;;15.75;76.34
80335;BME280;69653;52.674;13.574;2023-08-07T01:00:16;99434.84;;;15.91;75.61
80335;BME280;69653;52.674;13.574;2023-08-07T01:02:42;99417.03;;;16.08;74.88
80335;BME280;69653;52.674;13.574;2023-08-07T01:05:08;99419.41;;;16.29;73.84
80335;BME280;69653;52.674;13.574;2023-08-07T01:07:33;99416.59;;;16.25;73.89
80335;BME280;69653;52.674;13.574;2023-08-07T01:09:59;99414.25;;;16.27;73.96
80335;BME280;69653;52.674;13.574;2023-08-07T01:12:36;99417.47;;;16.29;74.20
80335;BME280;69653;52.674;13.574;2023-08-07T01:15:14;99426.47;;;16.26;74.05
80335;BME280;69653;52.674;13.574;2023-08-07T01:17:42;99422.19;;;16.29;74.12
80335;BME280;69653;52.674;13.574;2023-08-07T01:20:09;99412.13;;;15.98;75.45
80335;BME280;69653;52.674;13.574;2023-08-07T01:22:36;99410.19;;;15.79;75.97
80335;BME280;69653;52.674;13.574;2023-08-07T01:25:01;99400.75;;;15.61;76.74
80335;BME280;69653;52.674;13.574;2023-08-07T01:30:07;99400.59;;;15.19;78.67
80335;BME280;69653;52.674;13.574;2023-08-07T01:32:58;99395.34;;;14.79;80.78
80335;BME280;69653;52.674;13.574;2023-08-07T01:35:27;99382.28;;;14.45;82.26
80335;BME280;69653;52.674;13.574;2023-08-07T01:37:56;99383.91;;;14.18;83.46
80335;BME280;69653;52.674;13.574;2023-08-07T01:40:22;99380.00;;;14.03;84.29
80335;BME280;69653;52.674;13.574;2023-08-07T01:42:47;99365.72;;;13.98;84.64
80335;BME280;69653;52.674;13.574;2023-08-07T01:45:13;99368.28;;;13.91;85.01
80335;BME280;69653;52.674;13.574;2023-08-07T01:47:39;99371.13;;;13.94;84.99
80335;BME280;69653;52.674;13.574;2023-08-07T01:50:04;99372.47;;;14.00;84.76
80335;BME280;69653;52.674;13.574;2023-08-07T01:52:30;99372.66;;;13.92;85.22
80335;BME280;69653;52.674;13.574;2023-08-07T01:54:55;99378.72;;;13.85;85.81
80335;BME280;69653;52.674;13.574;2023-08-07T01:57:20;99372.03;;;13.71;86.20
80335;BME280;69653;52.674;13.574;2023-08-07T01:59:46;99388.50;;;13.71;86.51
80335;BME280;69653;52.674;13.574;2023-08-07T02:02:11;99381.13;;;13.59;87.02
80335;BME280;69653;52.674;13.574;2023-08-07T02:04:36;99368.00;;;13.52;87.25
80335;BME280;69653;52.674;13.574;2023-08-07T02:07:02;99384.66;;;13.59;86.90
80335;BME280;69653;52.674;13.574;2023-08-07T02:09:27;99386.47;;;13.68;86.25
80335;BME280;69653;52.674;13.574;2023-08-07T02:11:52;99391.72;;;13.73;86.20
80335;BME280;69653;52.674;13.574;2023-08-07T02:14:18;99402.22;;;13.83;85.83
80335;BME280;69653;52.674;13.574;2023-08-07T02:16:43;99390.31;;;13.79;85.80
80335;BME280;69653;52.674;13.574;2023-08-07T02:19:08;99401.41;;;13.82;86.09
80335;BME280;69653;52.674;13.574;2023-08-07T02:21:33;99398.13;;;13.77;85.52
80335;BME280;69653;52.674;13.574;2023-08-07T02:23:59;99386.63;;;13.87;85.62
80335;BME280;69653;52.674;13.574;2023-08-07T02:26:24;99390.88;;;13.84;85.47
80335;BME280;69653;52.674;13.574;2023-08-07T02:28:49;99382.22;;;13.98;84.66
80335;BME280;69653;52.674;13.574;2023-08-07T02:31:15;99392.06;;;13.99;84.54
80335;BME280;69653;52.674;13.574;2023-08-07T02:33:40;99394.53;;;14.04;84.30
80335;BME280;69653;52.674;13.574;2023-08-07T02:36:06;99398.03;;;14.17;83.65
80335;BME280;69653;52.674;13.574;2023-08-07T02:38:32;99393.53;;;14.24;83.40
80335;BME280;69653;52.674;13.574;2023-08-07T02:40:57;99404.66;;;14.43;82.87
80335;BME280;69653;52.674;13.574;2023-08-07T02:43:22;99407.03;;;14.45;82.76
80335;BME280;69653;52.674;13.574;2023-08-07T02:45:48;99404.50;;;14.36;83.09
80335;BME280;69653;52.674;13.574;2023-08-07T02:48:13;99407.47;;;14.31;83.45
80335;BME280;69653;52.674;13.574;2023-08-07T02:50:39;99397.25;;;14.32;83.48
80335;BME280;69653;52.674;13.574;2023-08-07T02:53:04;99403.81;;;14.27;83.72
80335;BME280;69653;52.674;13.574;2023-08-07T02:55:29;99394.50;;;14.16;84.45
80335;BME280;69653;52.674;13.574;2023-08-07T02:57:55;99400.63;;;14.25;84.37
80335;BME280;69653;52.674;13.574;2023-08-07T03:00:20;99390.13;;;14.15;84.59
80335;BME280;69653;52.674;13.574;2023-08-07T03:02:45;99390.75;;;14.08;85.25
80335;BME280;69653;52.674;13.574;2023-08-07T03:05:10;99395.53;;;14.12;85.23
80335;BME280;69653;52.674;13.574;2023-08-07T03:07:36;99391.38;;;14.02;86.43
80335;BME280;69653;52.674;13.574;2023-08-07T03:10:01;99400.31;;;13.99;86.65
80335;BME280;69653;52.674;13.574;2023-08-07T03:12:27;99395.16;;;13.97;86.75
80335;BME280;69653;52.674;13.574;2023-08-07T03:14:52;99396.84;;;14.02;86.87
80335;BME280;69653;52.674;13.574;2023-08-07T03:17:17;99397.75;;;14.06;86.59
80335;BME280;69653;52.674;13.574;2023-08-07T03:19:43;99397.13;;;14.13;86.46
80335;BME280;69653;52.674;13.574;2023-08-07T03:22:09;99394.25;;;14.21;86.06
80335;BME280;69653;52.674;13.574;2023-08-07T03:24:34;99393.81;;;14.35;85.67
80335;BME280;69653;52.674;13.574;2023-08-07T03:27:00;99407.25;;;14.36;85.59
80335;BME280;69653;52.674;13.574;2023-08-07T03:29:25;99404.03;;;14.34;86.02
80335;BME280;69653;52.674;13.574;2023-08-07T03:31:51;99389.16;;;14.23;86.50
80335;BME280;69653;52.674;13.574;2023-08-07T03:34:16;99407.88;;;14.33;86.35
80335;BME280;69653;52.674;13.574;2023-08-07T03:36:41;99410.78;;;14.52;85.48
80335;BME280;69653;52.674;13.574;2023-08-07T03:39:06;99409.97;;;14.68;84.83
80335;BME280;69653;52.674;13.574;2023-08-07T03:41:32;99407.75;;;14.89;83.65
80335;BME280;69653;52.674;13.574;2023-08-07T03:43:58;99413.06;;;14.97;83.58
80335;BME280;69653;52.674;13.574;2023-08-07T03:46:23;99408.09;;;15.03;83.09
80335;BME280;69653;52.674;13.574;2023-08-07T03:48:48;99398.88;;;14.95;83.49
80335;BME280;69653;52.674;13.574;2023-08-07T03:51:14;99396.31;;;14.87;84.04
80335;BME280;69653;52.674;13.574;2023-08-07T03:53:41;99403.69;;;14.83;84.74
80335;BME280;69653;52.674;13.574;2023-08-07T03:56:07;99395.41;;;14.98;83.77
80335;BME280;69653;52.674;13.574;2023-08-07T03:58:32;99400.53;;;15.00;83.59
80335;BME280;69653;52.674;13.574;2023-08-07T04:00:57;99391.66;;;15.07;83.38
80335;BME280;69653;52.674;13.574;2023-08-07T04:03:23;99395.28;;;15.11;83.19
80335;BME280;69653;52.674;13.574;2023-08-07T04:05:51;99393.50;;;15.18;82.89
80335;BME280;69653;52.674;13.574;2023-08-07T04:08:17;99390.38;;;14.85;84.20
80335;BME280;69653;52.674;13.574;2023-08-07T04:10:42;99396.59;;;14.66;85.37
80335;BME280;69653;52.674;13.574;2023-08-07T04:13:08;99406.63;;;14.59;85.97
80335;BME280;69653;52.674;13.574;2023-08-07T04:15:33;99408.03;;;14.52;86.14
80335;BME280;69653;52.674;13.574;2023-08-07T04:17:58;99389.22;;;14.39;86.58
80335;BME280;69653;52.674;13.574;2023-08-07T04:20:24;99406.06;;;14.37;86.89
80335;BME280;69653;52.674;13.574;2023-08-07T04:22:49;99395.31;;;14.32;86.78
80335;BME280;69653;52.674;13.574;2023-08-07T04:25:15;99396.47;;;14.31;86.91
80335;BME280;69653;52.674;13.574;2023-08-07T04:27:40;99381.38;;;14.25;87.36
80335;BME280;69653;52.674;13.574;2023-08-07T04:30:06;99384.47;;;14.24;87.69
80335;BME280;69653;52.674;13.574;2023-08-07T04:32:31;99396.72;;;14.26;87.67
80335;BME280;69653;52.674;13.574;2023-08-07T04:34:56;99386.78;;;14.22;87.40
80335;BME280;69653;52.674;13.574;2023-08-07T04:37:22;99387.66;;;14.26;87.38
80335;BME280;69653;52.674;13.574;2023-08-07T04:39:47;99394.06;;;14.30;87.05
80335;BME280;69653;52.674;13.574;2023-08-07T04:42:13;99393.25;;;14.29;86.92
80335;BME280;69653;52.674;13.574;2023-08-07T04:44:38;99402.75;;;14.32;87.02
80335;BME280;69653;52.674;13.574;2023-08-07T04:47:04;99403.31;;;14.37;87.14
80335;BME280;69653;52.674;13.574;2023-08-07T04:49:29;99405.00;;;14.42;86.63
80335;BME280;69653;52.674;13.574;2023-08-07T04:51:54;99406.97;;;14.41;86.64
80335;BME280;69653;52.674;13.574;2023-08-07T04:54:20;99411.50;;;14.49;86.50
80335;BME280;69653;52.674;13.574;2023-08-07T04:56:45;99413.44;;;14.49;86.24
80335;BME280;69653;52.674;13.574;2023-08-07T04:59:11;99412.63;;;14.48;85.94
80335;BME280;69653;52.674;13.574;2023-08-07T05:01:36;99413.78;;;14.79;84.40
80335;BME280;69653;52.674;13.574;2023-08-07T05:04:01;99417.59;;;15.05;83.47
80335;BME280;69653;52.674;13.574;2023-08-07T05:06:27;99410.91;;;15.22;82.50
80335;BME280;69653;52.674;13.574;2023-08-07T05:08:52;99420.97;;;15.49;81.63
80335;BME280;69653;52.674;13.574;2023-08-07T05:11:17;99428.78;;;15.47;81.20
80335;BME280;69653;52.674;13.574;2023-08-07T05:13:44;99431.34;;;15.56;81.12
80335;BME280;69653;52.674;13.574;2023-08-07T05:16:10;99432.16;;;15.76;80.48
80335;BME280;69653;52.674;13.574;2023-08-07T05:18:35;99436.72;;;15.87;79.43
80335;BME280;69653;52.674;13.574;2023-08-07T05:21:01;99427.22;;;16.04;78.02
80335;BME280;69653;52.674;13.574;2023-08-07T05:23:26;99437.53;;;16.07;77.82
80335;BME280;69653;52.674;13.574;2023-08-07T05:25:51;99432.94;;;16.15;77.83
80335;BME280;69653;52.674;13.574;2023-08-07T05:28:17;99419.97;;;16.15;77.51
80335;BME280;69653;52.674;13.574;2023-08-07T05:30:42;99433.31;;;16.13;77.67
80335;BME280;69653;52.674;13.574;2023-08-07T05:33:07;99422.41;;;16.20;77.05
80335;BME280;69653;52.674;13.574;2023-08-07T05:35:33;99424.72;;;16.37;76.61
80335;BME280;69653;52.674;13.574;2023-08-07T05:37:58;99436.22;;;16.62;75.46
80335;BME280;69653;52.674;13.574;2023-08-07T05:40:23;99436.56;;;16.83;74.93
80335;BME280;69653;52.674;13.574;2023-08-07T05:42:48;99435.75;;;16.83;74.75
80335;BME280;69653;52.674;13.574;2023-08-07T05:45:14;99434.50;;;16.77;74.64
80335;BME280;69653;52.674;13.574;2023-08-07T05:47:39;99446.44;;;17.07;73.97
80335;BME280;69653;52.674;13.574;2023-08-07T05:50:05;99445.91;;;17.24;72.45
80335;BME280;69653;52.674;13.574;2023-08-07T05:52:31;99443.56;;;17.26;71.75
80335;BME280;69653;52.674;13.574;2023-08-07T05:54:56;99433.94;;;16.68;72.91
80335;BME280;69653;52.674;13.574;2023-08-07T05:57:21;99453.41;;;17.01;72.72
80335;BME280;69653;52.674;13.574;2023-08-07T05:59:47;99438.84;;;17.01;72.69
80335;BME280;69653;52.674;13.574;2023-08-07T06:02:12;99451.63;;;17.12;72.52
80335;BME280;69653;52.674;13.574;2023-08-07T06:04:37;99445.16;;;17.27;71.94
80335;BME280;69653;52.674;13.574;2023-08-07T06:07:04;99437.19;;;17.22;71.60
80335;BME280;69653;52.674;13.574;2023-08-07T06:09:29;99462.00;;;17.45;71.26
80335;BME280;69653;52.674;13.574;2023-08-07T06:11:55;99460.25;;;17.33;71.17
80335;BME280;69653;52.674;13.574;2023-08-07T06:14:20;99458.97;;;17.27;70.94
80335;BME280;69653;52.674;13.574;2023-08-07T06:16:45;99460.22;;;17.30;70.82
80335;BME280;69653;52.674;13.574;2023-08-07T06:19:10;99457.34;;;17.23;70.99
80335;BME280;69653;52.674;13.574;2023-08-07T06:21:36;99468.97;;;17.35;70.96
80335;BME280;69653;52.674;13.574;2023-08-07T06:24:01;99470.34;;;17.22;70.86
80335;BME280;69653;52.674;13.574;2023-08-07T06:26:26;99473.22;;;17.29;70.54
80335;BME280;69653;52.674;13.574;2023-08-07T06:28:52;99471.78;;;16.90;71.46
80335;BME280;69653;52.674;13.574;2023-08-07T06:31:18;99478.41;;;17.08;71.37
80335;BME280;69653;52.674;13.574;2023-08-07T06:33:43;99479.84;;;17.25;70.75
80335;BME280;69653;52.674;13.574;2023-08-07T06:36:08;99481.16;;;17.34;70.18
80335;BME280;69653;52.674;13.574;2023-08-07T06:38:34;99480.88;;;17.39;70.03
80335;BME280;69653;52.674;13.574;2023-08-07T06:40:59;99478.53;;;17.41;69.97
80335;BME280;69653;52.674;13.574;2023-08-07T06:43:24;99489.75;;;17.52;69.60
80335;BME280;69653;52.674;13.574;2023-08-07T06:45:51;99481.25;;;17.38;69.45
80335;BME280;69653;52.674;13.574;2023-08-07T06:48:18;99495.84;;;17.38;69.50
80335;BME280;69653;52.674;13.574;2023-08-07T06:50:43;99491.50;;;17.37;69.51
80335;BME280;69653;52.674;13.574;2023-08-07T06:53:09;99482.56;;;17.48;68.78
80335;BME280;69653;52.674;13.574;2023-08-07T06:55:34;99490.38;;;17.42;68.82
80335;BME280;69653;52.674;13.574;2023-08-07T06:57:59;99497.94;;;17.45;68.36
80335;BME280;69653;52.674;13.574;2023-08-07T07:00:25;99497.44;;;17.39;68.83
80335;BME280;69653;52.674;13.574;2023-08-07T07:02:50;99495.78;;;17.58;67.97
80335;BME280;69653;52.674;13.574;2023-08-07T07:05:16;99497.09;;;17.67;68.16
80335;BME280;69653;52.674;13.574;2023-08-07T07:07:41;99491.56;;;17.67;67.26
80335;BME280;69653;52.674;13.574;2023-08-07T07:10:07;99498.50;;;17.84;67.25
80335;BME280;69653;52.674;13.574;2023-08-07T07:12:32;99495.19;;;18.01;66.43
80335;BME280;69653;52.674;13.574;2023-08-07T07:14:57;99495.78;;;18.17;65.89
80335;BME280;69653;52.674;13.574;2023-08-07T07:17:23;99509.56;;;18.14;66.25
80335;BME280;69653;52.674;13.574;2023-08-07T07:19:48;99515.31;;;18.31;65.42
80335;BME280;69653;52.674;13.574;2023-08-07T07:22:13;99511.38;;;18.66;64.08
80335;BME280;69653;52.674;13.574;2023-08-07T07:24:38;99516.38;;;18.90;62.98
80335;BME280;69653;52.674;13.574;2023-08-07T07:27:04;99513.28;;;18.99;62.48
80335;BME280;69653;52.674;13.574;2023-08-07T07:29:30;99512.69;;;18.75;62.98
80335;BME280;69653;52.674;13.574;2023-08-07T07:31:55;99514.25;;;18.76;63.61
80335;BME280;69653;52.674;13.574;2023-08-07T07:34:21;99514.88;;;19.00;63.34
80335;BME280;69653;52.674;13.574;2023-08-07T07:36:46;99516.22;;;19.16;62.67
80335;BME280;69653;52.674;13.574;2023-08-07T07:39:12;99518.44;;;19.00;62.01
80335;BME280;69653;52.674;13.574;2023-08-07T07:41:37;99520.09;;;19.08;62.63
80335;BME280;69653;52.674;13.574;2023-08-07T07:44:02;99526.91;;;19.18;61.96
80335;BME280;69653;52.674;13.574;2023-08-07T07:46:28;99527.25;;;19.09;61.78
80335;BME280;69653;52.674;13.574;2023-08-07T07:48:53;99537.50;;;19.05;61.97
80335;BME280;69653;52.674;13.574;2023-08-07T07:51:19;99541.88;;;19.10;62.02
80335;BME280;69653;52.674;13.574;2023-08-07T07:53:44;99543.03;;;19.05;62.06
80335;BME280;69653;52.674;13.574;2023-08-07T07:56:10;99533.19;;;19.11;61.57
80335;BME280;69653;52.674;13.574;2023-08-07T07:58:35;99546.31;;;19.18;61.46
80335;BME280;69653;52.674;13.574;2023-08-07T08:01:01;99528.44;;;19.12;61.65
80335;BME280;69653;52.674;13.574;2023-08-07T08:03:26;99545.44;;;19.10;61.64
80335;BME280;69653;52.674;13.574;2023-08-07T08:05:52;99532.38;;;19.07;61.13
80335;BME280;69653;52.674;13.574;2023-08-07T08:08:18;99532.84;;;19.16;61.03
80335;BME280;69653;52.674;13.574;2023-08-07T08:10:45;99532.84;;;19.16;60.85
80335;BME280;69653;52.674;13.574;2023-08-07T08:13:12;99543.16;;;19.19;60.48
80335;BME280;69653;52.674;13.574;2023-08-07T08:15:37;99537.13;;;19.10;60.31
80335;BME280;69653;52.674;13.574;2023-08-07T08:18:03;99548.59;;;19.05;60.33
80335;BME280;69653;52.674;13.574;2023-08-07T08:20:28;99544.53;;;18.96;60.53
80335;BME280;69653;52.674;13.574;2023-08-07T08:22:55;99559.81;;;18.79;61.03
80335;BME280;69653;52.674;13.574;2023-08-07T08:25:20;99567.09;;;18.94;60.68
80335;BME280;69653;52.674;13.574;2023-08-07T08:27:45;99559.66;;;19.05;60.53
80335;BME280;69653;52.674;13.574;2023-08-07T08:30:11;99564.34;;;18.98;60.61
80335;BME280;69653;52.674;13.574;2023-08-07T08:32:38;99564.31;;;18.94;60.92
80335;BME280;69653;52.674;13.574;2023-08-07T08:35:04;99564.38;;;19.01;60.65
80335;BME280;69653;52.674;13.574;2023-08-07T08:37:29;99562.13;;;19.17;60.29
80335;BME280;69653;52.674;13.574;2023-08-07T08:39:55;99559.75;;;19.12;60.32
80335;BME280;69653;52.674;13.574;2023-08-07T08:42:20;99559.09;;;19.29;60.19
80335;BME280;69653;52.674;13.574;2023-08-07T08:44:49;99561.59;;;19.42;59.89
80335;BME280;69653;52.674;13.574;2023-08-07T08:47:16;99583.31;;;19.39;60.10
80335;BME280;69653;52.674;13.574;2023-08-07T08:49:46;99571.09;;;19.00;60.96
80335;BME280;69653;52.674;13.574;2023-08-07T08:52:12;99573.09;;;19.03;61.40
80335;BME280;69653;52.674;13.574;2023-08-07T08:54:39;99573.94;;;19.07;61.73
80335;BME280;69653;52.674;13.574;2023-08-07T09:10:32;99572.91;;;18.85;62.55
80335;BME280;69653;52.674;13.574;2023-08-07T09:13:02;99563.97;;;19.03;61.69
80335;BME280;69653;52.674;13.574;2023-08-07T09:15:31;99568.84;;;19.13;62.12
80335;BME280;69653;52.674;13.574;2023-08-07T09:18:06;99564.53;;;19.19;61.73
80335;BME280;69653;52.674;13.574;2023-08-07T09:20:36;99568.63;;;19.35;60.94
80335;BME280;69653;52.674;13.574;2023-08-07T09:23:03;99545.22;;;19.29;61.32
80335;BME280;69653;52.674;13.574;2023-08-07T09:25:32;99554.38;;;19.33;60.67
80335;BME280;69653;52.674;13.574;2023-08-07T09:27:58;99558.06;;;19.45;60.45
80335;BME280;69653;52.674;13.574;2023-08-07T09:30:29;99549.69;;;19.41;60.28
80335;BME280;69653;52.674;13.574;2023-08-07T09:32:59;99558.75;;;19.34;60.85
80335;BME280;69653;52.674;13.574;2023-08-07T09:35:25;99550.69;;;19.19;60.82
80335;BME280;69653;52.674;13.574;2023-08-07T09:37:51;99560.50;;;19.09;61.46
80335;BME280;69653;52.674;13.574;2023-08-07T09:40:17;99553.09;;;18.83;61.48
80335;BME280;69653;52.674;13.574;2023-08-07T09:42:43;99564.47;;;18.71;61.38
80335;BME280;69653;52.674;13.574;2023-08-07T09:47:46;99559.38;;;18.47;64.57
80335;BME280;69653;52.674;13.574;2023-08-07T09:50:16;99565.03;;;18.24;65.02
80335;BME280;69653;52.674;13.574;2023-08-07T09:52:48;99574.63;;;18.30;65.21
80335;BME280;69653;52.674;13.574;2023-08-07T09:55:14;99580.38;;;18.18;66.06
80335;BME280;69653;52.674;13.574;2023-08-07T09:57:42;99566.31;;;18.01;66.27
80335;BME280;69653;52.674;13.574;2023-08-07T10:00:09;99577.34;;;18.27;65.12
80335;BME280;69653;52.674;13.574;2023-08-07T10:02:38;99580.16;;;18.30;65.30
80335;BME280;69653;52.674;13.574;2023-08-07T10:05:05;99575.31;;;18.24;65.75
80335;BME280;69653;52.674;13.574;2023-08-07T10:07:32;99577.00;;;18.02;66.34
80335;BME280;69653;52.674;13.574;2023-08-07T10:10:02;99566.72;;;18.32;65.56
80335;BME280;69653;52.674;13.574;2023-08-07T10:12:27;99576.06;;;18.84;63.53
80335;BME280;69653;52.674;13.574;2023-08-07T10:14:54;99571.66;;;19.16;62.13
80335;BME280;69653;52.674;13.574;2023-08-07T10:17:21;99574.22;;;19.39;61.20
80335;BME280;69653;52.674;13.574;2023-08-07T10:19:47;99562.66;;;19.30;61.18
80335;BME280;69653;52.674;13.574;2023-08-07T10:22:14;99575.66;;;19.22;61.75
80335;BME280;69653;52.674;13.574;2023-08-07T10:24:40;99580.63;;;19.06;61.38
80335;BME280;69653;52.674;13.574;2023-08-07T10:27:07;99577.19;;;19.16;61.03
80335;BME280;69653;52.674;13.574;2023-08-07T10:29:34;99578.28;;;19.08;61.14
80335;BME280;69653;52.674;13.574;2023-08-07T10:32:01;99577.47;;;19.04;60.81
80335;BME280;69653;52.674;13.574;2023-08-07T10:34:33;99569.94;;;19.05;61.62
80335;BME280;69653;52.674;13.574;2023-08-07T10:36:59;99587.38;;;19.05;61.62
80335;BME280;69653;52.674;13.574;2023-08-07T10:39:24;99579.53;;;19.14;61.82
80335;BME280;69653;52.674;13.574;2023-08-07T10:41:53;99589.22;;;19.34;60.87
80335;BME280;69653;52.674;13.574;2023-08-07T10:44:24;99586.19;;;19.47;60.06
80335;BME280;69653;52.674;13.574;2023-08-07T10:46:52;99575.19;;;19.57;60.11
80335;BME280;69653;52.674;13.574;2023-08-07T10:49:37;99568.03;;;19.53;59.66
80335;BME280;69653;52.674;13.574;2023-08-07T10:52:11;99578.38;;;19.59;59.58
80335;BME280;69653;52.674;13.574;2023-08-07T10:54:48;99575.16;;;19.50;59.29
80335;BME280;69653;52.674;13.574;2023-08-07T10:57:15;99577.13;;;19.50;59.10
80335;BME280;69653;52.674;13.574;2023-08-07T11:00:00;99574.31;;;19.46;59.73
80335;BME280;69653;52.674;13.574;2023-08-07T11:02:29;99571.81;;;19.34;58.94
80335;BME280;69653;52.674;13.574;2023-08-07T11:04:55;99590.69;;;19.21;60.47
80335;BME280;69653;52.674;13.574;2023-08-07T11:07:26;99623.97;;;18.88;63.86
80335;BME280;69653;52.674;13.574;2023-08-07T11:09:52;99607.66;;;18.16;69.54
80335;BME280;69653;52.674;13.574;2023-08-07T11:12:18;99607.00;;;18.00;70.89
80335;BME280;69653;52.674;13.574;2023-08-07T11:14:44;99604.03;;;18.12;71.53
80335;BME280;69653;52.674;13.574;2023-08-07T11:17:09;99616.69;;;18.43;70.08
80335;BME280;69653;52.674;13.574;2023-08-07T11:19:35;99611.50;;;18.68;70.13
80335;BME280;69653;52.674;13.574;2023-08-07T11:22:01;99596.09;;;18.70;70.25
80335;BME280;69653;52.674;13.574;2023-08-07T11:24:27;99615.28;;;18.86;69.21
80335;BME280;69653;52.674;13.574;2023-08-07T11:26:53;99614.22;;;18.98;68.21
80335;BME280;69653;52.674;13.574;2023-08-07T11:29:21;99608.75;;;19.05;68.33
80335;BME280;69653;52.674;13.574;2023-08-07T11:31:48;99602.88;;;19.13;67.02
80335;BME280;69653;52.674;13.574;2023-08-07T11:34:13;99603.63;;;19.10;65.88
80335;BME280;69653;52.674;13.574;2023-08-07T11:36:42;99608.84;;;19.15;65.02
80335;BME280;69653;52.674;13.574;2023-08-07T11:39:08;99600.44;;;19.05;64.44
80335;BME280;69653;52.674;13.574;2023-08-07T11:41:33;99604.03;;;19.09;64.39
80335;BME280;69653;52.674;13.574;2023-08-07T11:43:58;99606.78;;;19.05;64.51
80335;BME280;69653;52.674;13.574;2023-08-07T11:46:25;99606.84;;;19.12;64.42
80335;BME280;69653;52.674;13.574;2023-08-07T11:48:52;99596.22;;;19.21;64.10
80335;BME280;69653;52.674;13.574;2023-08-07T11:51:20;99612.94;;;19.32;63.95
80335;BME280;69653;52.674;13.574;2023-08-07T11:53:45;99614.72;;;19.51;62.49
80335;BME280;69653;52.674;13.574;2023-08-07T11:56:12;99601.88;;;19.72;61.17
80335;BME280;69653;52.674;13.574;2023-08-07T11:58:46;99590.69;;;19.65;59.98
80335;BME280;69653;52.674;13.574;2023-08-07T12:01:23;99596.38;;;19.79;60.52
80335;BME280;69653;52.674;13.574;2023-08-07T12:04:09;99585.66;;;19.81;60.33
80335;BME280;69653;52.674;13.574;2023-08-07T12:06:35;99604.81;;;19.97;59.09
80335;BME280;69653;52.674;13.574;2023-08-07T12:09:02;99601.72;;;20.09;59.45
80335;BME280;69653;52.674;13.574;2023-08-07T12:11:29;99613.81;;;20.42;58.58
80335;BME280;69653;52.674;13.574;2023-08-07T12:13:55;99617.41;;;20.49;57.39
80335;BME280;69653;52.674;13.574;2023-08-07T12:16:22;99621.03;;;20.57;56.71
80335;BME280;69653;52.674;13.574;2023-08-07T12:18:48;99623.47;;;20.72;56.83
80335;BME280;69653;52.674;13.574;2023-08-07T12:21:16;99613.88;;;20.59;56.27
80335;BME280;69653;52.674;13.574;2023-08-07T12:23:43;99612.38;;;20.72;56.35
80335;BME280;69653;52.674;13.574;2023-08-07T12:26:09;99611.25;;;21.05;55.43
80335;BME280;69653;52.674;13.574;2023-08-07T12:28:34;99606.50;;;21.09;55.22
80335;BME280;69653;52.674;13.574;2023-08-07T12:31:00;99611.69;;;21.14;55.13
80335;BME280;69653;52.674;13.574;2023-08-07T12:33:28;99620.47;;;21.31;54.28
80335;BME280;69653;52.674;13.574;2023-08-07T12:35:53;99609.34;;;21.45;54.17
80335;BME280;69653;52.674;13.574;2023-08-07T12:38:19;99603.00;;;21.41;53.28
80335;BME280;69653;52.674;13.574;2023-08-07T12:40:44;99608.59;;;21.51;52.68
80335;BME280;69653;52.674;13.574;2023-08-07T12:43:10;99611.75;;;21.43;52.44
80335;BME280;69653;52.674;13.574;2023-08-07T12:45:36;99604.59;;;21.52;52.04
80335;BME280;69653;52.674;13.574;2023-08-07T12:48:02;99602.59;;;21.63;51.04
80335;BME280;69653;52.674;13.574;2023-08-07T12:50:28;99612.56;;;21.64;50.90
80335;BME280;69653;52.674;13.574;2023-08-07T12:52:53;99605.78;;;21.69;50.42
80335;BME280;69653;52.674;13.574;2023-08-07T12:55:19;99603.00;;;21.83;50.22
80335;BME280;69653;52.674;13.574;2023-08-07T12:57:45;99604.63;;;21.91;49.38
80335;BME280;69653;52.674;13.574;2023-08-07T13:00:11;99610.53;;;22.07;49.02
80335;BME280;69653;52.674;13.574;2023-08-07T13:02:40;99615.69;;;22.16;48.56
80335;BME280;69653;52.674;13.574;2023-08-07T13:05:05;99605.75;;;22.22;47.37